Terminal Aerodrome Forecast
Issued by NWS

Current Version | Previous Version | Text Only | Print | Product List | Glossary On
Versions: 1 2 3 4 5 6 7 8 9 10 11 12 13 14 15 16 17 18 19 20 21
196
FTUS41 KBGM 271432 AAB
TAFELM
TAF AMD
KELM 271432Z 2715/2812 00000KT P6SM BKN015
      TEMPO 2715/2717 SCT025
     FM271700 16006KT P6SM SKC
     FM271900 18011G20KT P6SM BKN050
      TEMPO 2802/2806 5SM TSRA BR BKN025CB
     FM280600 26006KT 5SM -SHRA BKN025
     FM281000 28006KT P6SM BKN035=

USA.gov is the U.S. government's official web portal to all federal, state and local government web resources and services.